sensor_id;sensor_type;location;lat;lon;timestamp;pressure;altitude;pressure_sealevel;temperature;humidity
69214;BME280;56325;47.030;18.518;2023-03-04T00:02:23;100686.06;;;3.56;83.75
69214;BME280;56325;47.030;18.518;2023-03-04T00:04:59;100682.62;;;3.52;84.25
69214;BME280;56325;47.030;18.518;2023-03-04T00:07:35;100671.69;;;3.59;84.00
69214;BME280;56325;47.030;18.518;2023-03-04T00:10:10;100680.22;;;3.61;83.69
69214;BME280;56325;47.030;18.518;2023-03-04T00:12:45;100674.00;;;3.60;83.67
69214;BME280;56325;47.030;18.518;2023-03-04T00:15:19;100669.72;;;3.63;83.23
69214;BME280;56325;47.030;18.518;2023-03-04T00:17:53;100672.38;;;3.70;82.21
69214;BME280;56325;47.030;18.518;2023-03-04T00:20:29;100678.34;;;3.51;79.01
69214;BME280;56325;47.030;18.518;2023-03-04T00:23:04;100680.25;;;3.57;77.39
69214;BME280;56325;47.030;18.518;2023-03-04T00:25:38;100675.03;;;3.29;75.86
69214;BME280;56325;47.030;18.518;2023-03-04T00:28:15;100677.03;;;3.18;74.35
69214;BME280;56325;47.030;18.518;2023-03-04T00:30:50;100673.59;;;3.10;74.41
69214;BME280;56325;47.030;18.518;2023-03-04T00:33:24;100673.63;;;3.00;74.44
69214;BME280;56325;47.030;18.518;2023-03-04T00:36:00;100672.09;;;2.95;74.41
69214;BME280;56325;47.030;18.518;2023-03-04T00:38:35;100672.44;;;3.08;75.14
69214;BME280;56325;47.030;18.518;2023-03-04T00:41:10;100663.38;;;3.28;73.70
69214;BME280;56325;47.030;18.518;2023-03-04T00:43:45;100661.88;;;3.20;74.92
69214;BME280;56325;47.030;18.518;2023-03-04T00:46:20;100668.91;;;3.11;73.10
69214;BME280;56325;47.030;18.518;2023-03-04T00:48:56;100658.03;;;3.14;74.62
69214;BME280;56325;47.030;18.518;2023-03-04T00:51:33;100666.66;;;2.99;72.04
69214;BME280;56325;47.030;18.518;2023-03-04T00:54:07;100658.81;;;3.11;73.49
69214;BME280;56325;47.030;18.518;2023-03-04T00:56:42;100656.63;;;2.88;72.57
69214;BME280;56325;47.030;18.518;2023-03-04T00:59:16;100653.53;;;2.83;72.73
69214;BME280;56325;47.030;18.518;2023-03-04T01:01:51;100657.34;;;2.96;71.88
69214;BME280;56325;47.030;18.518;2023-03-04T01:04:25;100662.12;;;2.74;71.56
69214;BME280;56325;47.030;18.518;2023-03-04T01:07:01;100652.47;;;2.62;71.28
69214;BME280;56325;47.030;18.518;2023-03-04T01:09:36;100647.41;;;2.64;71.12
69214;BME280;56325;47.030;18.518;2023-03-04T01:12:10;100645.94;;;2.56;71.21
69214;BME280;56325;47.030;18.518;2023-03-04T01:14:45;100637.31;;;2.65;71.01
69214;BME280;56325;47.030;18.518;2023-03-04T01:17:19;100649.44;;;2.46;71.77
69214;BME280;56325;47.030;18.518;2023-03-04T01:19:54;100633.19;;;2.43;71.69
69214;BME280;56325;47.030;18.518;2023-03-04T01:22:30;100635.91;;;2.39;72.15
69214;BME280;56325;47.030;18.518;2023-03-04T01:25:05;100637.03;;;2.45;71.15
69214;BME280;56325;47.030;18.518;2023-03-04T01:27:40;100630.34;;;2.64;70.61
69214;BME280;56325;47.030;18.518;2023-03-04T01:30:14;100628.00;;;2.70;70.03
69214;BME280;56325;47.030;18.518;2023-03-04T01:32:49;100623.03;;;2.57;70.63
69214;BME280;56325;47.030;18.518;2023-03-04T01:35:23;100629.56;;;2.63;71.66
69214;BME280;56325;47.030;18.518;2023-03-04T01:37:59;100624.84;;;2.78;71.03
69214;BME280;56325;47.030;18.518;2023-03-04T01:40:34;100618.66;;;2.78;71.38
69214;BME280;56325;47.030;18.518;2023-03-04T01:43:11;100619.47;;;2.71;71.06
69214;BME280;56325;47.030;18.518;2023-03-04T01:45:50;100621.03;;;2.69;70.38
69214;BME280;56325;47.030;18.518;2023-03-04T01:48:27;100617.13;;;2.73;70.08
69214;BME280;56325;47.030;18.518;2023-03-04T01:51:03;100618.81;;;2.46;71.47
69214;BME280;56325;47.030;18.518;2023-03-04T01:53:40;100618.72;;;2.63;70.58
69214;BME280;56325;47.030;18.518;2023-03-04T01:56:19;100626.41;;;2.76;69.49
69214;BME280;56325;47.030;18.518;2023-03-04T01:59:10;100621.00;;;2.76;71.05
69214;BME280;56325;47.030;18.518;2023-03-04T02:01:47;100614.72;;;2.89;70.14
69214;BME280;56325;47.030;18.518;2023-03-04T02:04:24;100606.97;;;2.88;69.42
69214;BME280;56325;47.030;18.518;2023-03-04T02:07:00;100606.13;;;2.94;69.81
69214;BME280;56325;47.030;18.518;2023-03-04T02:09:37;100605.69;;;3.03;70.30
69214;BME280;56325;47.030;18.518;2023-03-04T02:12:11;100609.13;;;3.14;70.02
69214;BME280;56325;47.030;18.518;2023-03-04T02:14:46;100606.87;;;3.02;68.40
69214;BME280;56325;47.030;18.518;2023-03-04T02:17:23;100601.91;;;2.90;67.96
69214;BME280;56325;47.030;18.518;2023-03-04T02:20:02;100594.59;;;2.80;68.67
69214;BME280;56325;47.030;18.518;2023-03-04T02:22:44;100595.72;;;2.86;69.12
69214;BME280;56325;47.030;18.518;2023-03-04T02:25:27;100593.00;;;2.86;68.52
69214;BME280;56325;47.030;18.518;2023-03-04T02:28:06;100596.16;;;2.77;70.35
69214;BME280;56325;47.030;18.518;2023-03-04T02:30:41;100601.47;;;2.95;70.25
69214;BME280;56325;47.030;18.518;2023-03-04T02:33:16;100592.91;;;3.00;69.73
69214;BME280;56325;47.030;18.518;2023-03-04T02:35:51;100585.87;;;3.06;70.09
69214;BME280;56325;47.030;18.518;2023-03-04T02:38:26;100585.41;;;3.18;68.77
69214;BME280;56325;47.030;18.518;2023-03-04T02:41:02;100578.06;;;3.15;68.59
69214;BME280;56325;47.030;18.518;2023-03-04T02:43:40;100580.44;;;3.10;68.59
69214;BME280;56325;47.030;18.518;2023-03-04T02:46:15;100580.91;;;2.97;67.86
69214;BME280;56325;47.030;18.518;2023-03-04T02:48:52;100575.94;;;2.85;67.23
69214;BME280;56325;47.030;18.518;2023-03-04T02:51:27;100581.34;;;2.89;67.43
69214;BME280;56325;47.030;18.518;2023-03-04T02:54:01;100567.66;;;3.03;67.52
69214;BME280;56325;47.030;18.518;2023-03-04T02:56:35;100579.84;;;2.81;67.46
69214;BME280;56325;47.030;18.518;2023-03-04T02:59:11;100572.19;;;2.61;68.32
69214;BME280;56325;47.030;18.518;2023-03-04T03:01:46;100569.53;;;2.58;68.61
69214;BME280;56325;47.030;18.518;2023-03-04T03:04:24;100559.78;;;2.60;67.83
69214;BME280;56325;47.030;18.518;2023-03-04T03:06:59;100559.19;;;2.28;68.33
69214;BME280;56325;47.030;18.518;2023-03-04T03:09:35;100569.75;;;1.94;69.54
69214;BME280;56325;47.030;18.518;2023-03-04T03:12:09;100566.28;;;1.90;69.74
69214;BME280;56325;47.030;18.518;2023-03-04T03:14:47;100563.16;;;1.95;69.78
69214;BME280;56325;47.030;18.518;2023-03-04T03:17:21;100568.63;;;1.81;70.01
69214;BME280;56325;47.030;18.518;2023-03-04T03:19:56;100567.84;;;1.84;69.89
69214;BME280;56325;47.030;18.518;2023-03-04T03:22:37;100564.81;;;1.71;70.50
69214;BME280;56325;47.030;18.518;2023-03-04T03:25:13;100566.34;;;1.69;70.91
69214;BME280;56325;47.030;18.518;2023-03-04T03:27:47;100563.97;;;1.78;70.96
69214;BME280;56325;47.030;18.518;2023-03-04T03:30:23;100553.13;;;1.81;71.24
69214;BME280;56325;47.030;18.518;2023-03-04T03:32:58;100560.13;;;1.75;71.06
69214;BME280;56325;47.030;18.518;2023-03-04T03:35:32;100555.13;;;1.67;71.89
69214;BME280;56325;47.030;18.518;2023-03-04T03:38:07;100550.81;;;1.83;71.81
69214;BME280;56325;47.030;18.518;2023-03-04T03:40:41;100553.53;;;1.80;72.09
69214;BME280;56325;47.030;18.518;2023-03-04T03:43:16;100550.81;;;1.76;73.26
69214;BME280;56325;47.030;18.518;2023-03-04T03:45:52;100552.81;;;1.58;74.19
69214;BME280;56325;47.030;18.518;2023-03-04T03:48:27;100555.91;;;1.63;73.74
69214;BME280;56325;47.030;18.518;2023-03-04T03:51:01;100553.19;;;1.60;73.19
69214;BME280;56325;47.030;18.518;2023-03-04T03:53:35;100553.16;;;1.74;72.51
69214;BME280;56325;47.030;18.518;2023-03-04T03:56:10;100554.75;;;1.61;72.03
69214;BME280;56325;47.030;18.518;2023-03-04T03:58:44;100557.47;;;1.61;71.43
69214;BME280;56325;47.030;18.518;2023-03-04T04:01:20;100548.53;;;1.64;70.32
69214;BME280;56325;47.030;18.518;2023-03-04T04:03:55;100551.66;;;1.62;70.10
69214;BME280;56325;47.030;18.518;2023-03-04T04:06:29;100550.88;;;1.62;69.32
69214;BME280;56325;47.030;18.518;2023-03-04T04:09:04;100539.97;;;1.76;69.08
69214;BME280;56325;47.030;18.518;2023-03-04T04:11:38;100549.31;;;1.72;68.59
69214;BME280;56325;47.030;18.518;2023-03-04T04:14:13;100543.44;;;1.80;68.55
69214;BME280;56325;47.030;18.518;2023-03-04T04:16:49;100553.13;;;1.81;68.62
69214;BME280;56325;47.030;18.518;2023-03-04T04:19:23;100548.84;;;1.94;67.33
69214;BME280;56325;47.030;18.518;2023-03-04T04:21:58;100541.44;;;2.02;67.44
69214;BME280;56325;47.030;18.518;2023-03-04T04:24:33;100546.16;;;1.87;67.99
69214;BME280;56325;47.030;18.518;2023-03-04T04:27:07;100547.28;;;1.97;67.75
69214;BME280;56325;47.030;18.518;2023-03-04T04:29:42;100549.16;;;2.11;68.37
69214;BME280;56325;47.030;18.518;2023-03-04T04:32:18;100543.69;;;2.25;68.32
69214;BME280;56325;47.030;18.518;2023-03-04T04:34:52;100545.56;;;2.39;67.78
69214;BME280;56325;47.030;18.518;2023-03-04T04:37:27;100541.38;;;2.23;66.87
69214;BME280;56325;47.030;18.518;2023-03-04T04:40:02;100539.84;;;2.19;67.03
69214;BME280;56325;47.030;18.518;2023-03-04T04:42:37;100543.38;;;2.02;66.66
69214;BME280;56325;47.030;18.518;2023-03-04T04:45:11;100526.75;;;1.96;68.42
69214;BME280;56325;47.030;18.518;2023-03-04T04:47:47;100537.16;;;2.12;67.64
69214;BME280;56325;47.030;18.518;2023-03-04T04:50:22;100539.13;;;2.04;69.41
69214;BME280;56325;47.030;18.518;2023-03-04T04:52:56;100544.53;;;2.08;69.01
69214;BME280;56325;47.030;18.518;2023-03-04T04:55:33;100535.22;;;2.09;70.41
69214;BME280;56325;47.030;18.518;2023-03-04T04:58:07;100541.78;;;2.18;69.00
69214;BME280;56325;47.030;18.518;2023-03-04T05:00:42;100549.50;;;2.27;70.08
69214;BME280;56325;47.030;18.518;2023-03-04T05:03:18;100539.41;;;2.31;69.18
69214;BME280;56325;47.030;18.518;2023-03-04T05:05:55;100542.13;;;2.31;69.97
69214;BME280;56325;47.030;18.518;2023-03-04T05:08:30;100532.09;;;2.17;70.04
69214;BME280;56325;47.030;18.518;2023-03-04T05:11:05;100544.44;;;2.29;69.75
69214;BME280;56325;47.030;18.518;2023-03-04T05:13:40;100536.31;;;2.29;69.58
69214;BME280;56325;47.030;18.518;2023-03-04T05:16:15;100535.13;;;2.34;69.53
69214;BME280;56325;47.030;18.518;2023-03-04T05:18:51;100534.34;;;2.33;69.94
69214;BME280;56325;47.030;18.518;2023-03-04T05:21:25;100547.56;;;2.27;70.62
69214;BME280;56325;47.030;18.518;2023-03-04T05:24:00;100537.88;;;2.23;70.45
69214;BME280;56325;47.030;18.518;2023-03-04T05:26:34;100542.88;;;2.35;70.47
69214;BME280;56325;47.030;18.518;2023-03-04T05:29:08;100543.28;;;2.34;70.39
69214;BME280;56325;47.030;18.518;2023-03-04T05:31:43;100544.03;;;2.34;70.69
69214;BME280;56325;47.030;18.518;2023-03-04T05:34:19;100543.66;;;2.32;70.60
69214;BME280;56325;47.030;18.518;2023-03-04T05:36:53;100544.84;;;2.24;70.67
69214;BME280;56325;47.030;18.518;2023-03-04T05:39:27;100541.75;;;2.22;71.30
69214;BME280;56325;47.030;18.518;2023-03-04T05:42:02;100541.41;;;2.16;71.73
69214;BME280;56325;47.030;18.518;2023-03-04T05:44:36;100540.19;;;2.28;71.31
69214;BME280;56325;47.030;18.518;2023-03-04T05:47:11;100547.47;;;2.45;70.41
69214;BME280;56325;47.030;18.518;2023-03-04T05:49:47;100549.03;;;2.46;70.50
69214;BME280;56325;47.030;18.518;2023-03-04T05:52:21;100531.66;;;6.25;100.00
69214;BME280;56325;47.030;18.518;2023-03-04T05:54:56;100532.59;;;7.52;100.00
69214;BME280;56325;47.030;18.518;2023-03-04T05:57:30;100545.16;;;6.13;98.57
69214;BME280;56325;47.030;18.518;2023-03-04T06:00:06;100547.12;;;4.76;88.04
69214;BME280;56325;47.030;18.518;2023-03-04T06:02:44;100556.44;;;4.21;82.43
69214;BME280;56325;47.030;18.518;2023-03-04T06:05:20;100562.59;;;3.91;79.94
69214;BME280;56325;47.030;18.518;2023-03-04T06:07:55;100559.94;;;3.46;75.34
69214;BME280;56325;47.030;18.518;2023-03-04T06:10:31;100563.75;;;3.52;76.63
69214;BME280;56325;47.030;18.518;2023-03-04T06:13:06;100569.31;;;3.42;73.90
69214;BME280;56325;47.030;18.518;2023-03-04T06:15:40;100562.34;;;3.41;73.61
69214;BME280;56325;47.030;18.518;2023-03-04T06:18:14;100567.78;;;3.41;73.04
69214;BME280;56325;47.030;18.518;2023-03-04T06:20:55;100571.66;;;3.40;72.71
69214;BME280;56325;47.030;18.518;2023-03-04T06:23:29;100578.59;;;3.44;72.82
69214;BME280;56325;47.030;18.518;2023-03-04T06:26:05;100572.47;;;3.37;71.54
69214;BME280;56325;47.030;18.518;2023-03-04T06:28:43;100581.84;;;3.28;71.55
69214;BME280;56325;47.030;18.518;2023-03-04T06:31:18;100578.56;;;3.00;71.79
69214;BME280;56325;47.030;18.518;2023-03-04T06:33:52;100580.44;;;3.06;72.41
69214;BME280;56325;47.030;18.518;2023-03-04T06:36:28;100578.47;;;3.14;71.55
69214;BME280;56325;47.030;18.518;2023-03-04T06:39:03;100585.38;;;3.22;71.96
69214;BME280;56325;47.030;18.518;2023-03-04T06:41:38;100583.53;;;3.12;71.45
69214;BME280;56325;47.030;18.518;2023-03-04T06:44:12;100585.00;;;3.23;71.51
69214;BME280;56325;47.030;18.518;2023-03-04T06:46:47;100590.91;;;3.11;72.26
69214;BME280;56325;47.030;18.518;2023-03-04T06:49:22;100587.53;;;3.45;72.19
69214;BME280;56325;47.030;18.518;2023-03-04T06:51:58;100590.41;;;3.27;72.50
69214;BME280;56325;47.030;18.518;2023-03-04T06:54:33;100594.56;;;3.39;71.58
69214;BME280;56325;47.030;18.518;2023-03-04T06:57:07;100592.00;;;3.21;72.42
69214;BME280;56325;47.030;18.518;2023-03-04T06:59:41;100585.16;;;4.56;91.65
69214;BME280;56325;47.030;18.518;2023-03-04T07:02:55;100571.03;;;9.72;95.62
69214;BME280;56325;47.030;18.518;2023-03-04T07:05:32;100571.03;;;9.72;95.62
69214;BME280;56325;47.030;18.518;2023-03-04T07:08:06;100580.63;;;6.72;83.72
69214;BME280;56325;47.030;18.518;2023-03-04T07:10:41;100581.59;;;5.83;82.04
69214;BME280;56325;47.030;18.518;2023-03-04T07:13:15;100585.38;;;5.46;78.15
69214;BME280;56325;47.030;18.518;2023-03-04T07:15:50;100584.06;;;5.07;78.48
69214;BME280;56325;47.030;18.518;2023-03-04T07:18:26;100580.59;;;4.76;75.03
69214;BME280;56325;47.030;18.518;2023-03-04T07:21:01;100571.00;;;7.49;100.00
69214;BME280;56325;47.030;18.518;2023-03-04T07:23:36;100558.66;;;9.20;100.00
69214;BME280;56325;47.030;18.518;2023-03-04T07:26:11;100561.06;;;8.80;86.40
69214;BME280;56325;47.030;18.518;2023-03-04T07:28:46;100556.03;;;7.53;80.99
69214;BME280;56325;47.030;18.518;2023-03-04T07:31:22;100560.91;;;6.81;77.99
69214;BME280;56325;47.030;18.518;2023-03-04T07:34:00;100564.97;;;6.17;75.08
69214;BME280;56325;47.030;18.518;2023-03-04T07:36:35;100565.53;;;6.08;75.06
69214;BME280;56325;47.030;18.518;2023-03-04T07:39:11;100576.16;;;5.59;75.42
69214;BME280;56325;47.030;18.518;2023-03-04T07:41:46;100563.72;;;5.58;76.44
69214;BME280;56325;47.030;18.518;2023-03-04T07:44:22;100567.69;;;5.54;76.64
69214;BME280;56325;47.030;18.518;2023-03-04T07:46:56;100570.88;;;5.72;74.91
69214;BME280;56325;47.030;18.518;2023-03-04T07:49:32;100576.94;;;5.37;76.25
69214;BME280;56325;47.030;18.518;2023-03-04T07:52:07;100561.88;;;5.52;75.42
69214;BME280;56325;47.030;18.518;2023-03-04T07:54:42;100567.69;;;5.54;74.87
69214;BME280;56325;47.030;18.518;2023-03-04T07:57:16;100575.75;;;5.61;75.32
69214;BME280;56325;47.030;18.518;2023-03-04T07:59:51;100573.09;;;6.40;90.11
69214;BME280;56325;47.030;18.518;2023-03-04T08:02:26;100566.13;;;8.69;93.40
69214;BME280;56325;47.030;18.518;2023-03-04T08:05:02;100566.91;;;7.24;73.18
69214;BME280;56325;47.030;18.518;2023-03-04T08:07:36;100564.84;;;6.80;71.45
69214;BME280;56325;47.030;18.518;2023-03-04T08:10:11;100563.44;;;6.72;70.29
69214;BME280;56325;47.030;18.518;2023-03-04T08:12:45;100564.06;;;6.43;68.87
69214;BME280;56325;47.030;18.518;2023-03-04T08:15:20;100566.66;;;6.31;67.50
69214;BME280;56325;47.030;18.518;2023-03-04T08:17:57;100559.16;;;6.35;65.57
69214;BME280;56325;47.030;18.518;2023-03-04T08:20:33;100569.37;;;6.50;66.91
69214;BME280;56325;47.030;18.518;2023-03-04T08:23:08;100553.97;;;6.40;66.41
69214;BME280;56325;47.030;18.518;2023-03-04T08:25:43;100559.06;;;6.58;65.99
69214;BME280;56325;47.030;18.518;2023-03-04T08:28:17;100560.97;;;6.77;63.78
69214;BME280;56325;47.030;18.518;2023-03-04T08:30:52;100553.22;;;6.76;62.69
69214;BME280;56325;47.030;18.518;2023-03-04T08:33:28;100552.09;;;6.73;61.96
69214;BME280;56325;47.030;18.518;2023-03-04T08:36:05;100555.09;;;6.95;61.08
69214;BME280;56325;47.030;18.518;2023-03-04T08:38:40;100551.09;;;7.16;61.63
69214;BME280;56325;47.030;18.518;2023-03-04T08:41:14;100548.69;;;7.02;61.17
69214;BME280;56325;47.030;18.518;2023-03-04T08:43:49;100541.69;;;7.01;61.46
69214;BME280;56325;47.030;18.518;2023-03-04T08:46:23;100544.06;;;7.31;61.78
69214;BME280;56325;47.030;18.518;2023-03-04T08:48:58;100555.37;;;7.78;62.26
69214;BME280;56325;47.030;18.518;2023-03-04T08:51:37;100547.97;;;7.63;59.24
69214;BME280;56325;47.030;18.518;2023-03-04T08:54:11;100542.59;;;7.43;59.63
69214;BME280;56325;47.030;18.518;2023-03-04T08:56:46;100551.09;;;7.77;59.35
69214;BME280;56325;47.030;18.518;2023-03-04T08:59:22;100542.88;;;7.77;58.89
69214;BME280;56325;47.030;18.518;2023-03-04T09:01:57;100540.28;;;7.86;58.34
69214;BME280;56325;47.030;18.518;2023-03-04T09:04:31;100536.91;;;7.95;59.15
69214;BME280;56325;47.030;18.518;2023-03-04T09:07:07;100523.09;;;8.28;58.44
69214;BME280;56325;47.030;18.518;2023-03-04T09:09:42;100529.75;;;8.14;58.14
69214;BME280;56325;47.030;18.518;2023-03-04T09:12:16;100518.09;;;8.51;58.64
69214;BME280;56325;47.030;18.518;2023-03-04T09:14:50;100511.28;;;8.69;57.60
69214;BME280;56325;47.030;18.518;2023-03-04T09:17:42;100523.59;;;8.51;58.30
69214;BME280;56325;47.030;18.518;2023-03-04T09:20:17;100504.25;;;8.68;57.98
69214;BME280;56325;47.030;18.518;2023-03-04T09:22:54;100515.88;;;8.72;57.91
69214;BME280;56325;47.030;18.518;2023-03-04T09:25:28;100515.44;;;8.99;58.23
69214;BME280;56325;47.030;18.518;2023-03-04T09:28:04;100506.62;;;9.16;58.48
69214;BME280;56325;47.030;18.518;2023-03-04T09:30:39;100513.53;;;9.21;58.72
69214;BME280;56325;47.030;18.518;2023-03-04T09:33:14;100506.03;;;9.34;58.29
69214;BME280;56325;47.030;18.518;2023-03-04T09:35:48;100496.16;;;9.37;58.31
69214;BME280;56325;47.030;18.518;2023-03-04T09:38:24;100506.28;;;9.27;58.26
69214;BME280;56325;47.030;18.518;2023-03-04T09:41:02;100503.06;;;9.41;57.87
69214;BME280;56325;47.030;18.518;2023-03-04T09:43:38;100497.28;;;9.27;58.06
69214;BME280;56325;47.030;18.518;2023-03-04T09:46:15;100501.72;;;9.68;58.62
69214;BME280;56325;47.030;18.518;2023-03-04T09:48:54;100504.28;;;9.62;57.30
69214;BME280;56325;47.030;18.518;2023-03-04T09:51:46;100495.41;;;9.80;57.05
69214;BME280;56325;47.030;18.518;2023-03-04T09:54:49;100479.00;;;9.89;56.74
69214;BME280;56325;47.030;18.518;2023-03-04T09:57:29;100490.25;;;10.04;57.10
69214;BME280;56325;47.030;18.518;2023-03-04T10:00:14;100491.37;;;9.94;56.30
69214;BME280;56325;47.030;18.518;2023-03-04T10:03:09;100491.13;;;10.01;55.99
69214;BME280;56325;47.030;18.518;2023-03-04T10:05:52;100480.53;;;10.12;55.35
69214;BME280;56325;47.030;18.518;2023-03-04T10:08:37;100485.09;;;10.37;55.78
69214;BME280;56325;47.030;18.518;2023-03-04T10:11:17;100483.72;;;10.41;54.75
69214;BME280;56325;47.030;18.518;2023-03-04T10:14:02;100484.50;;;10.42;55.03
69214;BME280;56325;47.030;18.518;2023-03-04T10:16:41;100476.41;;;10.38;54.46
69214;BME280;56325;47.030;18.518;2023-03-04T10:19:27;100476.41;;;10.38;54.79
69214;BME280;56325;47.030;18.518;2023-03-04T10:22:15;100476.09;;;10.45;54.22
69214;BME280;56325;47.030;18.518;2023-03-04T10:24:52;100462.72;;;10.57;53.65
69214;BME280;56325;47.030;18.518;2023-03-04T10:27:30;100464.84;;;10.52;52.94
69214;BME280;56325;47.030;18.518;2023-03-04T10:30:12;100465.78;;;10.59;52.80
69214;BME280;56325;47.030;18.518;2023-03-04T10:32:52;100453.31;;;10.85;53.34
69214;BME280;56325;47.030;18.518;2023-03-04T10:35:32;100449.38;;;10.95;52.08
69214;BME280;56325;47.030;18.518;2023-03-04T10:38:12;100449.66;;;10.79;51.93
69214;BME280;56325;47.030;18.518;2023-03-04T10:40:47;100439.75;;;10.91;51.95
69214;BME280;56325;47.030;18.518;2023-03-04T10:43:23;100440.69;;;11.06;51.65
69214;BME280;56325;47.030;18.518;2023-03-04T10:45:58;100439.31;;;11.10;50.76
69214;BME280;56325;47.030;18.518;2023-03-04T10:48:33;100439.47;;;11.16;50.98
69214;BME280;56325;47.030;18.518;2023-03-04T10:51:12;100429.22;;;11.16;49.32
69214;BME280;56325;47.030;18.518;2023-03-04T10:53:55;100410.25;;;10.91;50.91
69214;BME280;56325;47.030;18.518;2023-03-04T10:56:34;100433.50;;;11.08;50.07
69214;BME280;56325;47.030;18.518;2023-03-04T10:59:31;100424.00;;;10.91;49.58
69214;BME280;56325;47.030;18.518;2023-03-04T11:02:15;100414.22;;;11.36;56.61
69214;BME280;56325;47.030;18.518;2023-03-04T11:04:55;100416.97;;;11.27;49.28
69214;BME280;56325;47.030;18.518;2023-03-04T11:07:31;100412.03;;;11.67;62.32
69214;BME280;56325;47.030;18.518;2023-03-04T11:10:29;100406.72;;;11.36;49.02
69214;BME280;56325;47.030;18.518;2023-03-04T11:13:12;100407.31;;;11.40;49.44
69214;BME280;56325;47.030;18.518;2023-03-04T11:15:52;100390.63;;;11.53;49.27
69214;BME280;56325;47.030;18.518;2023-03-04T11:18:33;100392.19;;;11.36;48.23
69214;BME280;56325;47.030;18.518;2023-03-04T11:21:16;100381.78;;;11.49;49.20
69214;BME280;56325;47.030;18.518;2023-03-04T11:23:55;100383.41;;;11.74;48.45
69214;BME280;56325;47.030;18.518;2023-03-04T11:26:33;100383.28;;;11.59;48.55
69214;BME280;56325;47.030;18.518;2023-03-04T11:29:13;100369.84;;;11.52;47.24
69214;BME280;56325;47.030;18.518;2023-03-04T11:31:55;100372.09;;;11.81;47.88
69214;BME280;56325;47.030;18.518;2023-03-04T11:34:36;100355.84;;;11.92;47.68
69214;BME280;56325;47.030;18.518;2023-03-04T11:37:17;100366.44;;;11.66;45.64
69214;BME280;56325;47.030;18.518;2023-03-04T11:39:58;100359.09;;;11.81;46.55
69214;BME280;56325;47.030;18.518;2023-03-04T11:42:40;100345.59;;;11.84;46.07
69214;BME280;56325;47.030;18.518;2023-03-04T11:45:17;100349.00;;;11.69;46.02
69214;BME280;56325;47.030;18.518;2023-03-04T11:48:07;100329.25;;;12.13;45.46
69214;BME280;56325;47.030;18.518;2023-03-04T11:50:49;100319.38;;;12.21;44.82
69214;BME280;56325;47.030;18.518;2023-03-04T11:53:39;100318.09;;;12.31;44.19
69214;BME280;56325;47.030;18.518;2023-03-04T11:56:23;100313.28;;;12.17;43.04
69214;BME280;56325;47.030;18.518;2023-03-04T11:59:29;100314.87;;;12.09;42.94
69214;BME280;56325;47.030;18.518;2023-03-04T12:02:14;100306.31;;;12.31;43.20
69214;BME280;56325;47.030;18.518;2023-03-04T12:08:22;100300.09;;;12.21;41.80
69214;BME280;56325;47.030;18.518;2023-03-04T12:11:02;100312.19;;;12.47;41.91
69214;BME280;56325;47.030;18.518;2023-03-04T12:16:56;100302.63;;;12.58;41.89
69214;BME280;56325;47.030;18.518;2023-03-04T12:19:42;100295.91;;;12.73;42.09
69214;BME280;56325;47.030;18.518;2023-03-04T12:22:31;100287.56;;;12.83;42.11
69214;BME280;56325;47.030;18.518;2023-03-04T12:25:44;100289.28;;;12.80;42.75
69214;BME280;56325;47.030;18.518;2023-03-04T12:31:33;100279.19;;;13.06;41.28
69214;BME280;56325;47.030;18.518;2023-03-04T12:34:33;100278.25;;;13.09;40.78
69214;BME280;56325;47.030;18.518;2023-03-04T12:40:46;100275.78;;;13.11;39.88
69214;BME280;56325;47.030;18.518;2023-03-04T12:43:30;100262.25;;;13.13;40.03
69214;BME280;56325;47.030;18.518;2023-03-04T12:46:18;100253.91;;;13.37;40.43
69214;BME280;56325;47.030;18.518;2023-03-04T12:49:14;100247.63;;;13.22;40.03
69214;BME280;56325;47.030;18.518;2023-03-04T12:51:59;100253.91;;;13.23;39.63
69214;BME280;56325;47.030;18.518;2023-03-04T12:54:38;100252.56;;;13.48;39.15
69214;BME280;56325;47.030;18.518;2023-03-04T12:57:16;100246.16;;;13.71;39.52
69214;BME280;56325;47.030;18.518;2023-03-04T12:59:58;100243.78;;;13.64;40.63
69214;BME280;56325;47.030;18.518;2023-03-04T13:02:49;100251.13;;;13.87;46.47
69214;BME280;56325;47.030;18.518;2023-03-04T13:05:54;100238.34;;;13.69;39.72
69214;BME280;56325;47.030;18.518;2023-03-04T13:08:36;100229.78;;;13.88;38.88
69214;BME280;56325;47.030;18.518;2023-03-04T13:11:53;100234.91;;;13.74;39.39
69214;BME280;56325;47.030;18.518;2023-03-04T13:14:33;100232.88;;;13.75;39.59
69214;BME280;56325;47.030;18.518;2023-03-04T13:17:39;100226.25;;;13.87;39.58
69214;BME280;56325;47.030;18.518;2023-03-04T13:20:22;100224.69;;;13.81;39.90
69214;BME280;56325;47.030;18.518;2023-03-04T13:22:57;100223.75;;;13.69;40.03
69214;BME280;56325;47.030;18.518;2023-03-04T13:25:38;100218.62;;;13.62;39.90
69214;BME280;56325;47.030;18.518;2023-03-04T13:28:22;100214.03;;;13.73;40.10
69214;BME280;56325;47.030;18.518;2023-03-04T13:31:12;100205.47;;;13.71;40.84
69214;BME280;56325;47.030;18.518;2023-03-04T13:33:58;100212.34;;;13.61;40.71
69214;BME280;56325;47.030;18.518;2023-03-04T13:36:57;100196.75;;;13.78;40.40
69214;BME280;56325;47.030;18.518;2023-03-04T13:39:36;100205.03;;;13.43;41.05
69214;BME280;56325;47.030;18.518;2023-03-04T13:42:38;100190.22;;;13.61;41.43
69214;BME280;56325;47.030;18.518;2023-03-04T13:45:31;100188.47;;;13.43;41.51
69214;BME280;56325;47.030;18.518;2023-03-04T13:48:23;100178.22;;;13.64;41.90
69214;BME280;56325;47.030;18.518;2023-03-04T13:50:58;100185.47;;;13.62;41.45
69214;BME280;56325;47.030;18.518;2023-03-04T13:53:43;100186.84;;;13.37;41.71
69214;BME280;56325;47.030;18.518;2023-03-04T13:56:27;100179.87;;;13.56;42.17
69214;BME280;56325;47.030;18.518;2023-03-04T13:59:21;100169.31;;;13.40;41.52